sensor_id;sensor_type;location;lat;lon;timestamp;pressure;altitude;pressure_sealevel;temperature;humidity
55801;BME280;41730;51.960;20.158;2023-08-06T00:00:16;99013.40;;;19.63;91.38
55801;BME280;41730;51.960;20.158;2023-08-06T00:02:48;99001.26;;;19.66;91.33
55801;BME280;41730;51.960;20.158;2023-08-06T00:05:20;99015.90;;;19.72;90.87
55801;BME280;41730;51.960;20.158;2023-08-06T00:07:52;99021.52;;;19.63;91.43
55801;BME280;41730;51.960;20.158;2023-08-06T00:10:24;99002.94;;;19.66;91.39
55801;BME280;41730;51.960;20.158;2023-08-06T00:12:56;98971.71;;;19.69;91.45
55801;BME280;41730;51.960;20.158;2023-08-06T00:15:27;98950.81;;;19.79;91.10
55801;BME280;41730;51.960;20.158;2023-08-06T00:17:59;98934.45;;;19.81;90.79
55801;BME280;41730;51.960;20.158;2023-08-06T00:20:31;98928.27;;;19.72;91.36
55801;BME280;41730;51.960;20.158;2023-08-06T00:23:03;98924.77;;;19.75;91.42
55801;BME280;41730;51.960;20.158;2023-08-06T00:25:35;98914.94;;;19.80;91.41
55801;BME280;41730;51.960;20.158;2023-08-06T00:28:06;98906.22;;;19.81;91.43
55801;BME280;41730;51.960;20.158;2023-08-06T00:30:38;98892.60;;;19.77;91.77
55801;BME280;41730;51.960;20.158;2023-08-06T00:33:10;98878.23;;;19.82;91.80
55801;BME280;41730;51.960;20.158;2023-08-06T00:35:42;98902.58;;;19.86;91.70
55801;BME280;41730;51.960;20.158;2023-08-06T00:38:14;98898.84;;;19.91;91.43
55801;BME280;41730;51.960;20.158;2023-08-06T00:40:45;98891.00;;;19.94;91.46
55801;BME280;41730;51.960;20.158;2023-08-06T00:43:17;98893.70;;;19.86;91.99
55801;BME280;41730;51.960;20.158;2023-08-06T00:45:49;98899.52;;;19.87;92.07
55801;BME280;41730;51.960;20.158;2023-08-06T00:48:21;98891.36;;;19.91;92.09
55801;BME280;41730;51.960;20.158;2023-08-06T00:50:52;98885.41;;;19.96;91.78
55801;BME280;41730;51.960;20.158;2023-08-06T00:53:24;98891.88;;;19.97;91.99
55801;BME280;41730;51.960;20.158;2023-08-06T00:55:56;98886.05;;;20.05;91.61
55801;BME280;41730;51.960;20.158;2023-08-06T00:58:29;98888.23;;;20.12;91.25
55801;BME280;41730;51.960;20.158;2023-08-06T01:01:01;98888.58;;;20.15;91.01
55801;BME280;41730;51.960;20.158;2023-08-06T01:03:33;98884.19;;;20.14;91.20
55801;BME280;41730;51.960;20.158;2023-08-06T01:06:06;98879.80;;;20.25;90.70
55801;BME280;41730;51.960;20.158;2023-08-06T01:08:46;98880.20;;;20.22;90.83
55801;BME280;41730;51.960;20.158;2023-08-06T01:11:26;98882.66;;;20.22;90.99
55801;BME280;41730;51.960;20.158;2023-08-06T01:14:08;98880.34;;;20.25;90.93
55801;BME280;41730;51.960;20.158;2023-08-06T01:16:45;98877.27;;;20.24;90.92
55801;BME280;41730;51.960;20.158;2023-08-06T01:19:21;98873.14;;;20.30;90.70
55801;BME280;41730;51.960;20.158;2023-08-06T01:21:52;98860.30;;;20.36;90.34
55801;BME280;41730;51.960;20.158;2023-08-06T01:24:24;98853.65;;;20.38;90.11
55801;BME280;41730;51.960;20.158;2023-08-06T01:27:04;98856.27;;;20.33;90.53
55801;BME280;41730;51.960;20.158;2023-08-06T01:29:41;98858.17;;;20.35;90.51
55801;BME280;41730;51.960;20.158;2023-08-06T01:32:16;98850.42;;;20.36;90.45
55801;BME280;41730;51.960;20.158;2023-08-06T01:34:50;98849.27;;;20.44;90.14
55801;BME280;41730;51.960;20.158;2023-08-06T01:37:23;98843.39;;;20.48;89.90
55801;BME280;41730;51.960;20.158;2023-08-06T01:39:54;98841.37;;;20.52;89.90
55801;BME280;41730;51.960;20.158;2023-08-06T01:42:26;98843.61;;;20.55;89.58
55801;BME280;41730;51.960;20.158;2023-08-06T01:44:58;98847.90;;;20.52;89.89
55801;BME280;41730;51.960;20.158;2023-08-06T01:47:30;98848.38;;;20.59;89.50
55801;BME280;41730;51.960;20.158;2023-08-06T01:50:01;98852.86;;;20.59;89.39
55801;BME280;41730;51.960;20.158;2023-08-06T01:52:33;98849.67;;;20.56;89.55
55801;BME280;41730;51.960;20.158;2023-08-06T01:55:06;98841.08;;;20.58;89.49
55801;BME280;41730;51.960;20.158;2023-08-06T01:57:37;98841.09;;;20.60;89.41
55801;BME280;41730;51.960;20.158;2023-08-06T02:00:11;98856.66;;;20.69;89.03
55801;BME280;41730;51.960;20.158;2023-08-06T02:02:43;98875.63;;;20.81;88.37
55801;BME280;41730;51.960;20.158;2023-08-06T02:05:14;98897.52;;;20.88;87.75
55801;BME280;41730;51.960;20.158;2023-08-06T02:07:46;98917.17;;;20.76;88.28
55801;BME280;41730;51.960;20.158;2023-08-06T02:10:18;98929.59;;;20.75;88.52
55801;BME280;41730;51.960;20.158;2023-08-06T02:12:49;98942.70;;;20.72;88.66
55801;BME280;41730;51.960;20.158;2023-08-06T02:15:21;98960.75;;;20.74;88.61
55801;BME280;41730;51.960;20.158;2023-08-06T02:17:52;98934.11;;;20.71;88.56
55801;BME280;41730;51.960;20.158;2023-08-06T02:20:25;98823.65;;;20.59;89.30
55801;BME280;41730;51.960;20.158;2023-08-06T02:22:56;98792.45;;;20.52;89.59
55801;BME280;41730;51.960;20.158;2023-08-06T02:25:29;98771.20;;;20.43;89.85
55801;BME280;41730;51.960;20.158;2023-08-06T02:28:01;98663.30;;;20.39;90.17
55801;BME280;41730;51.960;20.158;2023-08-06T02:30:33;98561.96;;;20.35;90.41
55801;BME280;41730;51.960;20.158;2023-08-06T02:33:05;98510.25;;;20.11;91.88
55801;BME280;41730;51.960;20.158;2023-08-06T02:35:36;98514.33;;;19.88;93.50
55801;BME280;41730;51.960;20.158;2023-08-06T02:38:08;98523.41;;;19.82;94.35
55801;BME280;41730;51.960;20.158;2023-08-06T02:40:44;98588.98;;;19.86;94.17
55801;BME280;41730;51.960;20.158;2023-08-06T02:43:16;98644.64;;;19.91;93.85
55801;BME280;41730;51.960;20.158;2023-08-06T02:45:48;98692.10;;;19.90;93.76
55801;BME280;41730;51.960;20.158;2023-08-06T02:48:20;98714.77;;;19.95;93.57
55801;BME280;41730;51.960;20.158;2023-08-06T02:50:51;98709.52;;;19.94;93.42
55801;BME280;41730;51.960;20.158;2023-08-06T02:53:23;98704.39;;;19.96;93.24
55801;BME280;41730;51.960;20.158;2023-08-06T02:55:55;98699.49;;;19.99;93.06
55801;BME280;41730;51.960;20.158;2023-08-06T02:58:26;98679.52;;;20.04;92.78
55801;BME280;41730;51.960;20.158;2023-08-06T03:01:08;98654.70;;;20.08;92.33
55801;BME280;41730;51.960;20.158;2023-08-06T03:03:39;98637.71;;;19.99;92.48
55801;BME280;41730;51.960;20.158;2023-08-06T03:06:11;98619.71;;;19.89;92.91
55801;BME280;41730;51.960;20.158;2023-08-06T03:08:42;98615.56;;;19.83;93.44
55801;BME280;41730;51.960;20.158;2023-08-06T03:11:14;98605.30;;;19.86;93.00
55801;BME280;41730;51.960;20.158;2023-08-06T03:13:46;98600.75;;;19.94;92.80
55801;BME280;41730;51.960;20.158;2023-08-06T03:16:17;98604.67;;;19.96;92.32
55801;BME280;41730;51.960;20.158;2023-08-06T03:18:49;98606.65;;;19.81;93.20
55801;BME280;41730;51.960;20.158;2023-08-06T03:21:21;98607.86;;;19.72;93.92
55801;BME280;41730;51.960;20.158;2023-08-06T03:23:53;98599.34;;;19.67;94.76
55801;BME280;41730;51.960;20.158;2023-08-06T03:26:25;98594.42;;;19.63;95.07
55801;BME280;41730;51.960;20.158;2023-08-06T03:29:01;98580.41;;;19.69;94.80
55801;BME280;41730;51.960;20.158;2023-08-06T03:31:43;98578.48;;;19.87;94.35
55801;BME280;41730;51.960;20.158;2023-08-06T03:34:25;98580.09;;;19.97;93.32
55801;BME280;41730;51.960;20.158;2023-08-06T03:37:07;98579.42;;;19.99;93.35
55801;BME280;41730;51.960;20.158;2023-08-06T03:39:47;98572.68;;;20.02;93.30
55801;BME280;41730;51.960;20.158;2023-08-06T03:42:23;98563.54;;;20.12;92.74
55801;BME280;41730;51.960;20.158;2023-08-06T03:44:54;98561.83;;;20.07;92.62
55801;BME280;41730;51.960;20.158;2023-08-06T03:47:26;98561.30;;;19.78;94.00
55801;BME280;41730;51.960;20.158;2023-08-06T03:49:57;98554.98;;;19.67;94.85
55801;BME280;41730;51.960;20.158;2023-08-06T03:52:29;98548.86;;;19.72;94.60
55801;BME280;41730;51.960;20.158;2023-08-06T03:55:01;98541.95;;;19.76;94.61
55801;BME280;41730;51.960;20.158;2023-08-06T03:57:33;98539.61;;;19.79;94.55
55801;BME280;41730;51.960;20.158;2023-08-06T04:00:05;98539.85;;;19.76;94.59
55801;BME280;41730;51.960;20.158;2023-08-06T04:02:37;98537.45;;;19.70;95.07
55801;BME280;41730;51.960;20.158;2023-08-06T04:05:09;98543.63;;;19.80;94.55
55801;BME280;41730;51.960;20.158;2023-08-06T04:07:41;98535.27;;;19.87;94.02
55801;BME280;41730;51.960;20.158;2023-08-06T04:10:13;98531.19;;;19.86;94.11
55801;BME280;41730;51.960;20.158;2023-08-06T04:12:44;98538.26;;;19.93;93.65
55801;BME280;41730;51.960;20.158;2023-08-06T04:15:16;98539.99;;;20.01;93.11
55801;BME280;41730;51.960;20.158;2023-08-06T04:17:48;98535.35;;;19.99;93.07
55801;BME280;41730;51.960;20.158;2023-08-06T04:20:20;98540.39;;;19.96;93.26
55801;BME280;41730;51.960;20.158;2023-08-06T04:22:53;98539.09;;;19.93;93.47
55801;BME280;41730;51.960;20.158;2023-08-06T04:25:25;98540.63;;;19.83;94.10
55801;BME280;41730;51.960;20.158;2023-08-06T04:27:57;98534.55;;;19.77;94.68
55801;BME280;41730;51.960;20.158;2023-08-06T04:30:28;98527.70;;;19.77;94.92
55801;BME280;41730;51.960;20.158;2023-08-06T04:33:00;98523.08;;;19.88;94.30
55801;BME280;41730;51.960;20.158;2023-08-06T04:35:32;98512.84;;;19.94;93.98
55801;BME280;41730;51.960;20.158;2023-08-06T04:38:03;98501.16;;;19.91;94.19
55801;BME280;41730;51.960;20.158;2023-08-06T04:40:35;98494.00;;;19.97;94.22
55801;BME280;41730;51.960;20.158;2023-08-06T04:43:07;98491.23;;;20.03;93.73
55801;BME280;41730;51.960;20.158;2023-08-06T04:45:38;98486.13;;;20.04;93.71
55801;BME280;41730;51.960;20.158;2023-08-06T04:48:17;98484.33;;;20.16;93.02
55801;BME280;41730;51.960;20.158;2023-08-06T04:50:49;98486.42;;;20.15;93.00
55801;BME280;41730;51.960;20.158;2023-08-06T04:53:21;98481.00;;;20.15;93.02
55801;BME280;41730;51.960;20.158;2023-08-06T04:55:52;98479.13;;;20.20;92.70
55801;BME280;41730;51.960;20.158;2023-08-06T04:58:24;98478.59;;;20.15;93.12
55801;BME280;41730;51.960;20.158;2023-08-06T05:00:56;98480.59;;;20.37;92.06
55801;BME280;41730;51.960;20.158;2023-08-06T05:03:28;98477.23;;;20.42;91.46
55801;BME280;41730;51.960;20.158;2023-08-06T05:05:59;98480.27;;;20.44;91.31
55801;BME280;41730;51.960;20.158;2023-08-06T05:08:31;98481.81;;;20.49;91.28
55801;BME280;41730;51.960;20.158;2023-08-06T05:11:03;98482.23;;;20.55;90.85
55801;BME280;41730;51.960;20.158;2023-08-06T05:13:35;98479.69;;;20.51;90.92
55801;BME280;41730;51.960;20.158;2023-08-06T05:16:06;98484.69;;;20.47;91.36
55801;BME280;41730;51.960;20.158;2023-08-06T05:18:38;98481.38;;;20.46;91.21
55801;BME280;41730;51.960;20.158;2023-08-06T05:21:11;98483.45;;;20.34;92.06
55801;BME280;41730;51.960;20.158;2023-08-06T05:23:42;98485.48;;;20.31;92.38
55801;BME280;41730;51.960;20.158;2023-08-06T05:26:14;98477.97;;;20.44;91.71
55801;BME280;41730;51.960;20.158;2023-08-06T05:28:48;98466.65;;;20.54;90.99
55801;BME280;41730;51.960;20.158;2023-08-06T05:31:20;98470.48;;;20.64;90.55
55801;BME280;41730;51.960;20.158;2023-08-06T05:33:52;98470.00;;;20.60;90.68
55801;BME280;41730;51.960;20.158;2023-08-06T05:36:25;98472.26;;;20.68;90.27
55801;BME280;41730;51.960;20.158;2023-08-06T05:38:59;98459.61;;;20.56;91.07
55801;BME280;41730;51.960;20.158;2023-08-06T05:41:30;98458.30;;;20.65;90.74
55801;BME280;41730;51.960;20.158;2023-08-06T05:44:02;98455.46;;;20.53;91.25
55801;BME280;41730;51.960;20.158;2023-08-06T05:46:34;98457.83;;;20.42;92.17
55801;BME280;41730;51.960;20.158;2023-08-06T05:49:06;98454.88;;;20.54;91.55
55801;BME280;41730;51.960;20.158;2023-08-06T05:51:37;98457.96;;;20.56;91.33
55801;BME280;41730;51.960;20.158;2023-08-06T05:54:09;98458.94;;;20.55;91.73
55801;BME280;41730;51.960;20.158;2023-08-06T05:56:41;98459.14;;;20.66;91.29
55801;BME280;41730;51.960;20.158;2023-08-06T05:59:13;98454.98;;;20.77;90.77
55801;BME280;41730;51.960;20.158;2023-08-06T06:01:45;98454.40;;;20.83;90.12
55801;BME280;41730;51.960;20.158;2023-08-06T06:04:20;98449.29;;;20.78;90.51
55801;BME280;41730;51.960;20.158;2023-08-06T06:06:54;98442.17;;;20.83;90.34
55801;BME280;41730;51.960;20.158;2023-08-06T06:09:26;98436.73;;;20.87;90.15
55801;BME280;41730;51.960;20.158;2023-08-06T06:11:58;98429.33;;;20.90;90.25
55801;BME280;41730;51.960;20.158;2023-08-06T06:14:29;98427.26;;;20.96;90.00
55801;BME280;41730;51.960;20.158;2023-08-06T06:17:01;98426.36;;;21.12;89.39
55801;BME280;41730;51.960;20.158;2023-08-06T06:19:33;98416.36;;;21.25;88.93
55801;BME280;41730;51.960;20.158;2023-08-06T06:22:05;98421.27;;;21.37;88.29
55801;BME280;41730;51.960;20.158;2023-08-06T06:24:37;98414.84;;;21.44;88.05
55801;BME280;41730;51.960;20.158;2023-08-06T06:27:09;98408.91;;;21.51;87.84
55801;BME280;41730;51.960;20.158;2023-08-06T06:29:41;98406.27;;;21.52;87.71
55801;BME280;41730;51.960;20.158;2023-08-06T06:32:12;98400.77;;;21.38;88.57
55801;BME280;41730;51.960;20.158;2023-08-06T06:34:44;98397.39;;;21.41;88.65
55801;BME280;41730;51.960;20.158;2023-08-06T06:37:16;98389.09;;;21.40;88.88
55801;BME280;41730;51.960;20.158;2023-08-06T06:39:47;98381.72;;;21.46;88.71
55801;BME280;41730;51.960;20.158;2023-08-06T06:42:19;98370.77;;;21.54;88.49
55801;BME280;41730;51.960;20.158;2023-08-06T06:44:51;98371.07;;;21.69;87.94
55801;BME280;41730;51.960;20.158;2023-08-06T06:47:23;98369.19;;;21.76;87.50
55801;BME280;41730;51.960;20.158;2023-08-06T06:49:55;98372.73;;;21.87;87.20
55801;BME280;41730;51.960;20.158;2023-08-06T06:52:26;98379.20;;;21.98;86.67
55801;BME280;41730;51.960;20.158;2023-08-06T06:54:58;98378.41;;;21.99;86.61
55801;BME280;41730;51.960;20.158;2023-08-06T06:57:30;98374.10;;;21.98;86.83
55801;BME280;41730;51.960;20.158;2023-08-06T07:00:02;98369.02;;;22.05;86.63
55801;BME280;41730;51.960;20.158;2023-08-06T07:02:35;98367.02;;;22.12;86.54
55801;BME280;41730;51.960;20.158;2023-08-06T07:05:08;98365.76;;;22.17;86.33
55801;BME280;41730;51.960;20.158;2023-08-06T07:07:40;98360.88;;;22.22;86.09
55801;BME280;41730;51.960;20.158;2023-08-06T07:10:13;98363.19;;;22.27;85.84
55801;BME280;41730;51.960;20.158;2023-08-06T07:12:44;98359.52;;;22.25;85.91
55801;BME280;41730;51.960;20.158;2023-08-06T07:15:16;98349.16;;;22.23;86.28
55801;BME280;41730;51.960;20.158;2023-08-06T07:17:49;98351.73;;;22.27;86.10
55801;BME280;41730;51.960;20.158;2023-08-06T07:20:20;98343.25;;;22.22;86.34
55801;BME280;41730;51.960;20.158;2023-08-06T07:22:53;98342.05;;;22.27;86.45
55801;BME280;41730;51.960;20.158;2023-08-06T07:25:25;98344.60;;;22.39;86.15
55801;BME280;41730;51.960;20.158;2023-08-06T07:27:56;98345.77;;;22.44;85.98
55801;BME280;41730;51.960;20.158;2023-08-06T07:30:28;98339.59;;;22.56;85.74
55801;BME280;41730;51.960;20.158;2023-08-06T07:33:01;98341.34;;;22.68;85.23
55801;BME280;41730;51.960;20.158;2023-08-06T07:35:32;98341.50;;;22.63;85.24
55801;BME280;41730;51.960;20.158;2023-08-06T07:38:04;98344.98;;;22.63;85.44
55801;BME280;41730;51.960;20.158;2023-08-06T07:40:36;98342.83;;;22.66;85.23
55801;BME280;41730;51.960;20.158;2023-08-06T07:43:08;98345.95;;;22.64;85.62
55801;BME280;41730;51.960;20.158;2023-08-06T07:45:40;98348.17;;;22.60;86.11
55801;BME280;41730;51.960;20.158;2023-08-06T07:48:11;98346.08;;;22.65;85.98
55801;BME280;41730;51.960;20.158;2023-08-06T07:50:43;98347.79;;;22.70;85.83
55801;BME280;41730;51.960;20.158;2023-08-06T07:53:20;98348.35;;;22.66;86.03
55801;BME280;41730;51.960;20.158;2023-08-06T07:55:53;98347.41;;;22.64;86.29
55801;BME280;41730;51.960;20.158;2023-08-06T07:58:26;98349.66;;;22.69;86.25
55801;BME280;41730;51.960;20.158;2023-08-06T08:00:59;98347.00;;;22.66;86.38
55801;BME280;41730;51.960;20.158;2023-08-06T08:03:34;98344.70;;;22.67;86.62
55801;BME280;41730;51.960;20.158;2023-08-06T08:06:06;98346.60;;;22.78;86.47
55801;BME280;41730;51.960;20.158;2023-08-06T08:08:38;98339.62;;;22.88;86.03
55801;BME280;41730;51.960;20.158;2023-08-06T08:11:10;98329.99;;;22.99;85.81
55801;BME280;41730;51.960;20.158;2023-08-06T08:13:41;98329.63;;;23.11;85.34
55801;BME280;41730;51.960;20.158;2023-08-06T08:16:13;98332.67;;;23.16;85.18
55801;BME280;41730;51.960;20.158;2023-08-06T08:18:46;98333.25;;;23.20;85.18
55801;BME280;41730;51.960;20.158;2023-08-06T08:21:17;98333.42;;;23.27;85.05
55801;BME280;41730;51.960;20.158;2023-08-06T08:23:52;98331.45;;;23.36;84.94
55801;BME280;41730;51.960;20.158;2023-08-06T08:26:24;98327.98;;;23.46;84.02
55801;BME280;41730;51.960;20.158;2023-08-06T08:28:58;98333.55;;;23.44;84.34
55801;BME280;41730;51.960;20.158;2023-08-06T08:31:29;98331.59;;;23.33;84.99
55801;BME280;41730;51.960;20.158;2023-08-06T08:34:01;98335.47;;;23.35;84.95
55801;BME280;41730;51.960;20.158;2023-08-06T08:36:33;98330.52;;;23.43;84.68
55801;BME280;41730;51.960;20.158;2023-08-06T08:39:05;98331.11;;;23.46;84.57
55801;BME280;41730;51.960;20.158;2023-08-06T08:41:38;98329.17;;;23.54;84.41
55801;BME280;41730;51.960;20.158;2023-08-06T08:44:11;98329.19;;;23.62;84.05
55801;BME280;41730;51.960;20.158;2023-08-06T08:46:45;98324.98;;;23.58;83.97
55801;BME280;41730;51.960;20.158;2023-08-06T08:49:19;98318.13;;;23.42;84.89
55801;BME280;41730;51.960;20.158;2023-08-06T08:51:54;98316.66;;;23.44;84.97
55801;BME280;41730;51.960;20.158;2023-08-06T08:54:27;98314.82;;;23.49;84.98
55801;BME280;41730;51.960;20.158;2023-08-06T08:57:00;98310.22;;;23.59;84.75
55801;BME280;41730;51.960;20.158;2023-08-06T08:59:35;98307.73;;;23.72;84.37
55801;BME280;41730;51.960;20.158;2023-08-06T09:02:09;98307.55;;;23.81;84.07
55801;BME280;41730;51.960;20.158;2023-08-06T09:04:42;98306.80;;;23.74;84.29
55801;BME280;41730;51.960;20.158;2023-08-06T09:07:19;98303.17;;;23.65;85.04
55801;BME280;41730;51.960;20.158;2023-08-06T09:09:53;98299.02;;;23.62;85.24
55801;BME280;41730;51.960;20.158;2023-08-06T09:12:26;98301.16;;;23.70;84.98
55801;BME280;41730;51.960;20.158;2023-08-06T09:14:59;98295.73;;;23.69;84.98
55801;BME280;41730;51.960;20.158;2023-08-06T09:17:33;98290.92;;;23.72;85.00
55801;BME280;41730;51.960;20.158;2023-08-06T09:20:13;98288.71;;;23.83;84.72
55801;BME280;41730;51.960;20.158;2023-08-06T09:22:45;98289.36;;;24.04;83.99
55801;BME280;41730;51.960;20.158;2023-08-06T09:25:22;98285.89;;;24.24;83.22
55801;BME280;41730;51.960;20.158;2023-08-06T09:27:55;98282.45;;;24.36;83.02
55801;BME280;41730;51.960;20.158;2023-08-06T09:30:34;98281.44;;;24.43;83.09
55801;BME280;41730;51.960;20.158;2023-08-06T09:33:09;98275.66;;;24.44;83.15
55801;BME280;41730;51.960;20.158;2023-08-06T09:35:42;98272.83;;;24.49;83.30
55801;BME280;41730;51.960;20.158;2023-08-06T09:38:13;98267.06;;;24.60;82.86
55801;BME280;41730;51.960;20.158;2023-08-06T09:40:45;98263.76;;;24.77;82.38
55801;BME280;41730;51.960;20.158;2023-08-06T09:43:20;98259.52;;;24.96;81.58
55801;BME280;41730;51.960;20.158;2023-08-06T09:45:56;98257.06;;;24.99;81.80
55801;BME280;41730;51.960;20.158;2023-08-06T09:48:28;98256.03;;;25.09;81.60
55801;BME280;41730;51.960;20.158;2023-08-06T09:51:01;98253.09;;;25.21;80.82
55801;BME280;41730;51.960;20.158;2023-08-06T09:53:34;98249.92;;;25.22;80.59
55801;BME280;41730;51.960;20.158;2023-08-06T09:56:09;98245.29;;;25.27;80.87
55801;BME280;41730;51.960;20.158;2023-08-06T09:58:41;98242.68;;;25.46;80.58
55801;BME280;41730;51.960;20.158;2023-08-06T10:01:14;98245.55;;;25.66;79.85
55801;BME280;41730;51.960;20.158;2023-08-06T10:03:47;98241.23;;;25.86;79.63
55801;BME280;41730;51.960;20.158;2023-08-06T10:06:21;98231.01;;;26.03;78.37
55801;BME280;41730;51.960;20.158;2023-08-06T10:08:54;98229.22;;;26.07;78.20
55801;BME280;41730;51.960;20.158;2023-08-06T10:11:26;98221.73;;;26.19;78.19
55801;BME280;41730;51.960;20.158;2023-08-06T10:14:04;98219.27;;;26.42;77.64
55801;BME280;41730;51.960;20.158;2023-08-06T10:16:39;98215.09;;;26.68;76.84
55801;BME280;41730;51.960;20.158;2023-08-06T10:19:13;98212.73;;;26.81;76.47
55801;BME280;41730;51.960;20.158;2023-08-06T10:22:10;98216.10;;;26.97;75.77
55801;BME280;41730;51.960;20.158;2023-08-06T10:24:50;98210.98;;;27.05;75.98
55801;BME280;41730;51.960;20.158;2023-08-06T10:27:32;98212.64;;;27.04;76.09
55801;BME280;41730;51.960;20.158;2023-08-06T10:30:25;98208.08;;;27.04;76.28
55801;BME280;41730;51.960;20.158;2023-08-06T10:32:58;98197.80;;;27.24;75.79
55801;BME280;41730;51.960;20.158;2023-08-06T10:35:32;98192.64;;;27.44;75.14
55801;BME280;41730;51.960;20.158;2023-08-06T10:38:11;98191.43;;;27.51;74.94
55801;BME280;41730;51.960;20.158;2023-08-06T10:40:52;98182.83;;;27.48;74.51
55801;BME280;41730;51.960;20.158;2023-08-06T10:43:33;98176.16;;;27.51;74.33
55801;BME280;41730;51.960;20.158;2023-08-06T10:46:21;98168.66;;;27.59;74.22
55801;BME280;41730;51.960;20.158;2023-08-06T10:48:53;98165.08;;;27.64;74.47
55801;BME280;41730;51.960;20.158;2023-08-06T10:51:25;98158.52;;;27.76;74.21
55801;BME280;41730;51.960;20.158;2023-08-06T10:53:58;98157.21;;;27.96;72.89
55801;BME280;41730;51.960;20.158;2023-08-06T10:56:30;98153.93;;;28.03;72.20
55801;BME280;41730;51.960;20.158;2023-08-06T10:59:01;98148.45;;;27.93;71.80
55801;BME280;41730;51.960;20.158;2023-08-06T11:01:34;98139.94;;;27.80;72.05
55801;BME280;41730;51.960;20.158;2023-08-06T11:04:07;98138.26;;;27.95;71.14
55801;BME280;41730;51.960;20.158;2023-08-06T11:06:39;98131.70;;;27.97;71.83
55801;BME280;41730;51.960;20.158;2023-08-06T11:09:14;98122.27;;;27.99;71.89
55801;BME280;41730;51.960;20.158;2023-08-06T11:11:46;98113.92;;;28.19;71.80
55801;BME280;41730;51.960;20.158;2023-08-06T11:14:18;98104.87;;;28.31;70.28
55801;BME280;41730;51.960;20.158;2023-08-06T11:16:50;98098.45;;;28.28;70.37
55801;BME280;41730;51.960;20.158;2023-08-06T11:19:22;98091.96;;;28.30;70.63
55801;BME280;41730;51.960;20.158;2023-08-06T11:21:56;98088.74;;;28.36;70.31
55801;BME280;41730;51.960;20.158;2023-08-06T11:24:28;98086.02;;;28.33;69.32
55801;BME280;41730;51.960;20.158;2023-08-06T11:27:00;98081.33;;;28.33;69.35
55801;BME280;41730;51.960;20.158;2023-08-06T11:29:38;98077.38;;;28.37;69.34
55801;BME280;41730;51.960;20.158;2023-08-06T11:32:11;98063.53;;;28.49;68.17
55801;BME280;41730;51.960;20.158;2023-08-06T11:34:46;98056.88;;;28.61;67.90
55801;BME280;41730;51.960;20.158;2023-08-06T11:37:22;98052.02;;;28.76;67.36
55801;BME280;41730;51.960;20.158;2023-08-06T11:39:55;98047.10;;;28.90;66.78
55801;BME280;41730;51.960;20.158;2023-08-06T11:42:32;98036.85;;;28.94;66.04
55801;BME280;41730;51.960;20.158;2023-08-06T11:45:07;98020.98;;;29.00;65.02
55801;BME280;41730;51.960;20.158;2023-08-06T11:47:41;98012.62;;;29.11;65.05
55801;BME280;41730;51.960;20.158;2023-08-06T11:50:23;98007.16;;;29.14;64.85
55801;BME280;41730;51.960;20.158;2023-08-06T11:52:59;98017.43;;;29.12;64.13
55801;BME280;41730;51.960;20.158;2023-08-06T11:55:31;98014.95;;;28.98;63.40
55801;BME280;41730;51.960;20.158;2023-08-06T11:58:06;98006.64;;;28.95;63.73
55801;BME280;41730;51.960;20.158;2023-08-06T12:00:36;98007.10;;;28.96;64.05
55801;BME280;41730;51.960;20.158;2023-08-06T12:03:08;98005.39;;;28.92;63.78
55801;BME280;41730;51.960;20.158;2023-08-06T12:05:41;98002.05;;;28.80;64.65
55801;BME280;41730;51.960;20.158;2023-08-06T12:08:17;98005.23;;;28.64;65.61
55801;BME280;41730;51.960;20.158;2023-08-06T12:10:49;98021.83;;;28.52;66.20
55801;BME280;41730;51.960;20.158;2023-08-06T12:13:21;98031.19;;;28.21;66.73
55801;BME280;41730;51.960;20.158;2023-08-06T12:15:53;98044.28;;;27.69;67.96
55801;BME280;41730;51.960;20.158;2023-08-06T12:18:27;98040.42;;;27.10;69.91
55801;BME280;41730;51.960;20.158;2023-08-06T12:20:59;98047.85;;;26.78;71.80
55801;BME280;41730;51.960;20.158;2023-08-06T12:23:31;98045.83;;;26.73;72.60
55801;BME280;41730;51.960;20.158;2023-08-06T12:26:03;98047.88;;;26.99;72.57
55801;BME280;41730;51.960;20.158;2023-08-06T12:28:35;98048.92;;;27.26;72.43
55801;BME280;41730;51.960;20.158;2023-08-06T12:31:07;98036.73;;;27.51;71.64
55801;BME280;41730;51.960;20.158;2023-08-06T12:33:39;98021.27;;;27.54;71.12
55801;BME280;41730;51.960;20.158;2023-08-06T12:36:11;98019.00;;;27.62;70.79
55801;BME280;41730;51.960;20.158;2023-08-06T12:38:43;98029.09;;;27.86;70.54
55801;BME280;41730;51.960;20.158;2023-08-06T12:41:15;98030.66;;;28.11;69.73
55801;BME280;41730;51.960;20.158;2023-08-06T12:43:47;98033.58;;;28.18;68.42
55801;BME280;41730;51.960;20.158;2023-08-06T12:46:19;98031.59;;;28.13;67.99
55801;BME280;41730;51.960;20.158;2023-08-06T12:48:51;98030.76;;;28.15;66.43
55801;BME280;41730;51.960;20.158;2023-08-06T12:51:23;98057.33;;;28.10;65.84
55801;BME280;41730;51.960;20.158;2023-08-06T12:53:55;98065.70;;;27.95;65.77
55801;BME280;41730;51.960;20.158;2023-08-06T12:56:28;98058.52;;;27.78;66.06
55801;BME280;41730;51.960;20.158;2023-08-06T12:58:59;98053.88;;;27.69;66.00
55801;BME280;41730;51.960;20.158;2023-08-06T13:01:33;98052.07;;;27.72;65.52
55801;BME280;41730;51.960;20.158;2023-08-06T13:04:04;98038.47;;;27.79;65.36
55801;BME280;41730;51.960;20.158;2023-08-06T13:06:51;98039.52;;;27.90;65.08
55801;BME280;41730;51.960;20.158;2023-08-06T13:09:24;98040.88;;;27.93;65.39
55801;BME280;41730;51.960;20.158;2023-08-06T13:12:04;98051.52;;;28.11;64.88
55801;BME280;41730;51.960;20.158;2023-08-06T13:14:37;98079.36;;;28.17;64.43
55801;BME280;41730;51.960;20.158;2023-08-06T13:17:11;98092.62;;;28.13;63.77
55801;BME280;41730;51.960;20.158;2023-08-06T13:19:44;98096.48;;;28.11;64.03